sensor_id;sensor_type;location;lat;lon;timestamp;pressure;altitude;pressure_sealevel;temperature;humidity
40954;BME280;26686;50.130;8.710;2024-03-02T00:03:21;98978.09;;;8.74;74.71
40954;BME280;26686;50.130;8.710;2024-03-02T00:08:24;98991.91;;;8.77;74.88
40954;BME280;26686;50.130;8.710;2024-03-02T00:13:28;98966.53;;;8.65;75.42
40954;BME280;26686;50.130;8.710;2024-03-02T00:18:35;98968.19;;;8.66;75.51
40954;BME280;26686;50.130;8.710;2024-03-02T00:23:37;98972.94;;;8.62;75.55
40954;BME280;26686;50.130;8.710;2024-03-02T00:28:40;98980.47;;;8.67;76.08
40954;BME280;26686;50.130;8.710;2024-03-02T00:33:46;98963.72;;;8.57;75.94
40954;BME280;26686;50.130;8.710;2024-03-02T00:38:49;98956.06;;;8.54;76.52
40954;BME280;26686;50.130;8.710;2024-03-02T00:44:02;98950.59;;;8.55;76.78
40954;BME280;26686;50.130;8.710;2024-03-02T00:49:10;98945.34;;;8.45;77.02
40954;BME280;26686;50.130;8.710;2024-03-02T00:54:13;98953.97;;;8.47;77.17
40954;BME280;26686;50.130;8.710;2024-03-02T00:59:15;98952.16;;;8.48;77.40
40954;BME280;26686;50.130;8.710;2024-03-02T01:04:16;98952.84;;;8.40;77.60
40954;BME280;26686;50.130;8.710;2024-03-02T01:09:18;98959.28;;;8.38;77.49
40954;BME280;26686;50.130;8.710;2024-03-02T01:14:20;98963.16;;;8.43;77.84
40954;BME280;26686;50.130;8.710;2024-03-02T01:19:21;98970.19;;;8.44;78.06
40954;BME280;26686;50.130;8.710;2024-03-02T01:24:23;98975.72;;;8.41;78.93
40954;BME280;26686;50.130;8.710;2024-03-02T01:29:25;98971.53;;;8.39;77.97
40954;BME280;26686;50.130;8.710;2024-03-02T01:34:26;98982.00;;;8.40;78.80
40954;BME280;26686;50.130;8.710;2024-03-02T01:39:28;98969.03;;;8.37;78.37
40954;BME280;26686;50.130;8.710;2024-03-02T01:44:29;98971.97;;;8.34;77.93
40954;BME280;26686;50.130;8.710;2024-03-02T01:49:31;98966.66;;;8.34;78.33
40954;BME280;26686;50.130;8.710;2024-03-02T01:54:34;98933.59;;;8.19;77.94
40954;BME280;26686;50.130;8.710;2024-03-02T01:59:35;98939.31;;;8.24;78.26
40954;BME280;26686;50.130;8.710;2024-03-02T02:04:37;98942.81;;;8.24;78.04
40954;BME280;26686;50.130;8.710;2024-03-02T02:09:38;98931.09;;;8.17;78.54
40954;BME280;26686;50.130;8.710;2024-03-02T02:14:47;98908.09;;;8.08;78.39
40954;BME280;26686;50.130;8.710;2024-03-02T02:19:48;98917.00;;;8.17;78.99
40954;BME280;26686;50.130;8.710;2024-03-02T02:24:50;98914.09;;;8.20;79.48
40954;BME280;26686;50.130;8.710;2024-03-02T02:29:51;98916.16;;;8.16;79.96
40954;BME280;26686;50.130;8.710;2024-03-02T02:34:53;98909.19;;;8.15;79.93
40954;BME280;26686;50.130;8.710;2024-03-02T02:39:54;98914.34;;;8.17;79.83
40954;BME280;26686;50.130;8.710;2024-03-02T02:44:57;98916.88;;;8.08;80.30
40954;BME280;26686;50.130;8.710;2024-03-02T02:49:59;98917.69;;;8.09;80.56
40954;BME280;26686;50.130;8.710;2024-03-02T02:55:01;98904.03;;;8.04;80.71
40954;BME280;26686;50.130;8.710;2024-03-02T03:00:12;98911.03;;;8.05;80.95
40954;BME280;26686;50.130;8.710;2024-03-02T03:05:19;98904.19;;;8.02;80.77
40954;BME280;26686;50.130;8.710;2024-03-02T03:10:20;98891.78;;;7.93;80.95
40954;BME280;26686;50.130;8.710;2024-03-02T03:15:24;98893.16;;;7.97;81.22
40954;BME280;26686;50.130;8.710;2024-03-02T03:20:26;98895.09;;;7.95;81.19
40954;BME280;26686;50.130;8.710;2024-03-02T03:25:28;98898.72;;;7.94;81.51
40954;BME280;26686;50.130;8.710;2024-03-02T03:30:31;98896.63;;;7.88;82.39
40954;BME280;26686;50.130;8.710;2024-03-02T03:35:33;98891.78;;;7.93;82.27
40954;BME280;26686;50.130;8.710;2024-03-02T03:40:34;98884.25;;;7.88;82.07
40954;BME280;26686;50.130;8.710;2024-03-02T03:45:36;98886.47;;;7.93;82.31
40954;BME280;26686;50.130;8.710;2024-03-02T03:50:37;98878.09;;;7.88;82.01
40954;BME280;26686;50.130;8.710;2024-03-02T03:55:40;98903.22;;;7.84;82.08
40954;BME280;26686;50.130;8.710;2024-03-02T04:00:41;98910.16;;;7.85;82.29
40954;BME280;26686;50.130;8.710;2024-03-02T04:05:43;98910.16;;;7.85;82.74
40954;BME280;26686;50.130;8.710;2024-03-02T04:10:45;98903.22;;;7.84;82.43
40954;BME280;26686;50.130;8.710;2024-03-02T04:15:48;98895.38;;;7.72;82.46
40954;BME280;26686;50.130;8.710;2024-03-02T04:20:49;98887.84;;;7.77;83.04
40954;BME280;26686;50.130;8.710;2024-03-02T04:25:54;98893.69;;;7.71;83.10
40954;BME280;26686;50.130;8.710;2024-03-02T04:30:55;98894.84;;;7.78;83.13
40954;BME280;26686;50.130;8.710;2024-03-02T04:35:57;98887.44;;;7.72;83.24
40954;BME280;26686;50.130;8.710;2024-03-02T04:40:59;98899.72;;;7.73;83.33
40954;BME280;26686;50.130;8.710;2024-03-02T04:46:00;98899.56;;;7.65;83.35
40954;BME280;26686;50.130;8.710;2024-03-02T04:51:03;98904.31;;;7.71;83.50
40954;BME280;26686;50.130;8.710;2024-03-02T04:56:05;98879.75;;;7.50;83.98
40954;BME280;26686;50.130;8.710;2024-03-02T05:01:25;98901.53;;;7.63;84.19
40954;BME280;26686;50.130;8.710;2024-03-02T05:06:27;98904.59;;;7.58;83.75
40954;BME280;26686;50.130;8.710;2024-03-02T05:11:28;98916.28;;;7.56;84.69
40954;BME280;26686;50.130;8.710;2024-03-02T05:16:40;98898.97;;;7.52;84.40
40954;BME280;26686;50.130;8.710;2024-03-02T05:21:43;98907.66;;;7.54;84.67
40954;BME280;26686;50.130;8.710;2024-03-02T05:26:44;98915.16;;;7.49;85.10
40954;BME280;26686;50.130;8.710;2024-03-02T05:31:46;98929.38;;;7.48;84.93
40954;BME280;26686;50.130;8.710;2024-03-02T05:36:49;98937.03;;;7.51;85.24
40954;BME280;26686;50.130;8.710;2024-03-02T05:41:50;98938.56;;;7.43;85.30
40954;BME280;26686;50.130;8.710;2024-03-02T05:46:53;98943.31;;;7.50;85.19
40954;BME280;26686;50.130;8.710;2024-03-02T05:51:55;98939.69;;;7.51;85.02
40954;BME280;26686;50.130;8.710;2024-03-02T05:56:56;98928.38;;;7.39;84.94
40954;BME280;26686;50.130;8.710;2024-03-02T06:02:01;98948.59;;;7.50;85.28
40954;BME280;26686;50.130;8.710;2024-03-02T06:07:03;98955.28;;;7.44;85.41
40954;BME280;26686;50.130;8.710;2024-03-02T06:12:04;98960.88;;;7.51;85.08
40954;BME280;26686;50.130;8.710;2024-03-02T06:17:06;98963.81;;;7.57;85.26
40954;BME280;26686;50.130;8.710;2024-03-02T06:22:09;98948.16;;;7.44;85.35
40954;BME280;26686;50.130;8.710;2024-03-02T06:27:12;98962.72;;;7.60;85.04
40954;BME280;26686;50.130;8.710;2024-03-02T06:32:13;98978.31;;;7.63;84.84
40954;BME280;26686;50.130;8.710;2024-03-02T06:37:15;98977.09;;;7.67;85.03
40954;BME280;26686;50.130;8.710;2024-03-02T06:42:17;98984.03;;;7.68;85.04
40954;BME280;26686;50.130;8.710;2024-03-02T06:47:19;98992.56;;;7.72;84.96
40954;BME280;26686;50.130;8.710;2024-03-02T06:52:21;98975.13;;;7.69;84.82
40954;BME280;26686;50.130;8.710;2024-03-02T06:57:25;98986.88;;;7.76;84.61
40954;BME280;26686;50.130;8.710;2024-03-02T07:02:27;98988.50;;;7.77;84.73
40954;BME280;26686;50.130;8.710;2024-03-02T07:07:28;98989.06;;;7.71;84.25
40954;BME280;26686;50.130;8.710;2024-03-02T07:12:30;98990.47;;;7.75;83.96
40954;BME280;26686;50.130;8.710;2024-03-02T07:17:32;98992.84;;;7.78;84.28
40954;BME280;26686;50.130;8.710;2024-03-02T07:22:34;99005.13;;;7.79;83.87
40954;BME280;26686;50.130;8.710;2024-03-02T07:27:36;99006.78;;;7.71;83.96
40954;BME280;26686;50.130;8.710;2024-03-02T07:32:37;99005.94;;;7.70;84.08
40954;BME280;26686;50.130;8.710;2024-03-02T07:37:39;99012.75;;;7.73;83.90
40954;BME280;26686;50.130;8.710;2024-03-02T07:42:45;99007.06;;;7.68;83.99
40954;BME280;26686;50.130;8.710;2024-03-02T07:47:47;98998.28;;;7.67;83.84
40954;BME280;26686;50.130;8.710;2024-03-02T07:52:50;99015.72;;;7.79;83.41
40954;BME280;26686;50.130;8.710;2024-03-02T07:57:51;99008.22;;;7.94;83.29
40954;BME280;26686;50.130;8.710;2024-03-02T08:02:53;99020.66;;;8.23;82.51
40954;BME280;26686;50.130;8.710;2024-03-02T08:07:55;99021.81;;;8.50;81.20
40954;BME280;26686;50.130;8.710;2024-03-02T08:12:56;99025.84;;;8.74;80.34
40954;BME280;26686;50.130;8.710;2024-03-02T08:17:58;99019.28;;;8.68;80.10
40954;BME280;26686;50.130;8.710;2024-03-02T08:23:01;99019.81;;;8.91;79.99
40954;BME280;26686;50.130;8.710;2024-03-02T08:28:03;99027.78;;;9.29;79.08
40954;BME280;26686;50.130;8.710;2024-03-02T08:33:05;99033.47;;;9.44;77.87
40954;BME280;26686;50.130;8.710;2024-03-02T08:38:07;99037.09;;;9.43;76.34
40954;BME280;26686;50.130;8.710;2024-03-02T08:43:08;99036.72;;;9.37;76.74
40954;BME280;26686;50.130;8.710;2024-03-02T08:48:10;99037.97;;;9.33;76.78
40954;BME280;26686;50.130;8.710;2024-03-02T08:53:11;99051.78;;;9.47;76.36
40954;BME280;26686;50.130;8.710;2024-03-02T08:58:13;99052.34;;;9.41;75.42
40954;BME280;26686;50.130;8.710;2024-03-02T09:03:14;99045.13;;;9.33;75.68
40954;BME280;26686;50.130;8.710;2024-03-02T09:08:17;99051.63;;;9.48;75.40
40954;BME280;26686;50.130;8.710;2024-03-02T09:13:19;99043.03;;;9.64;74.34
40954;BME280;26686;50.130;8.710;2024-03-02T09:18:21;99044.97;;;9.72;75.22
40954;BME280;26686;50.130;8.710;2024-03-02T09:23:25;99046.22;;;9.96;75.06
40954;BME280;26686;50.130;8.710;2024-03-02T09:28:26;99017.81;;;9.96;73.40
40954;BME280;26686;50.130;8.710;2024-03-02T09:33:30;99031.97;;;10.33;71.53
40954;BME280;26686;50.130;8.710;2024-03-02T09:38:33;99024.78;;;10.43;71.17
40954;BME280;26686;50.130;8.710;2024-03-02T09:43:35;99037.31;;;10.69;70.26
40954;BME280;26686;50.130;8.710;2024-03-02T09:48:37;99024.97;;;10.86;69.65
40954;BME280;26686;50.130;8.710;2024-03-02T09:53:38;99022.59;;;11.01;67.56
40954;BME280;26686;50.130;8.710;2024-03-02T09:58:42;99030.13;;;11.40;67.23
40954;BME280;26686;50.130;8.710;2024-03-02T10:03:45;99021.16;;;11.83;65.44
40954;BME280;26686;50.130;8.710;2024-03-02T10:08:51;98995.31;;;11.84;64.32
40954;BME280;26686;50.130;8.710;2024-03-02T10:14:04;99028.31;;;12.42;62.55
40954;BME280;26686;50.130;8.710;2024-03-02T10:24:22;99013.44;;;12.97;59.46
40954;BME280;26686;50.130;8.710;2024-03-02T10:29:24;99010.22;;;13.18;59.66
40954;BME280;26686;50.130;8.710;2024-03-02T10:34:28;99018.31;;;13.66;58.17
40954;BME280;26686;50.130;8.710;2024-03-02T10:39:30;99011.63;;;14.25;55.91
40954;BME280;26686;50.130;8.710;2024-03-02T10:44:33;99007.25;;;14.93;54.54
40954;BME280;26686;50.130;8.710;2024-03-02T10:49:35;99001.16;;;15.74;50.97
40954;BME280;26686;50.130;8.710;2024-03-02T10:54:39;98990.97;;;16.21;48.91
40954;BME280;26686;50.130;8.710;2024-03-02T11:00:12;98976.34;;;16.95;47.09
40954;BME280;26686;50.130;8.710;2024-03-02T11:05:23;98979.78;;;17.52;45.16
40954;BME280;26686;50.130;8.710;2024-03-02T11:10:33;98967.88;;;17.75;44.78
40954;BME280;26686;50.130;8.710;2024-03-02T11:15:35;98969.25;;;17.57;44.34
40954;BME280;26686;50.130;8.710;2024-03-02T11:20:39;98971.94;;;17.57;44.52
40954;BME280;26686;50.130;8.710;2024-03-02T11:25:41;98954.56;;;18.42;43.26
40954;BME280;26686;50.130;8.710;2024-03-02T11:35:47;98953.78;;;20.69;37.89
40954;BME280;26686;50.130;8.710;2024-03-02T11:40:50;98948.53;;;21.18;35.77
40954;BME280;26686;50.130;8.710;2024-03-02T11:45:58;98937.41;;;21.82;35.12
40954;BME280;26686;50.130;8.710;2024-03-02T11:51:01;98931.16;;;21.26;35.06
40954;BME280;26686;50.130;8.710;2024-03-02T11:56:02;98932.53;;;22.33;34.15
40954;BME280;26686;50.130;8.710;2024-03-02T12:01:04;98926.06;;;22.81;32.32
40954;BME280;26686;50.130;8.710;2024-03-02T12:06:06;98916.75;;;22.77;31.74
40954;BME280;26686;50.130;8.710;2024-03-02T12:11:08;98910.03;;;22.91;32.00
40954;BME280;26686;50.130;8.710;2024-03-02T12:16:09;98893.50;;;23.28;31.93
40954;BME280;26686;50.130;8.710;2024-03-02T12:21:11;98885.09;;;23.99;30.80
40954;BME280;26686;50.130;8.710;2024-03-02T12:26:13;98881.50;;;24.79;29.21
40954;BME280;26686;50.130;8.710;2024-03-02T12:31:16;98884.09;;;25.30;28.62
40954;BME280;26686;50.130;8.710;2024-03-02T12:36:19;98864.22;;;26.43;26.58
40954;BME280;26686;50.130;8.710;2024-03-02T12:41:22;98858.00;;;27.59;24.62
40954;BME280;26686;50.130;8.710;2024-03-02T12:46:24;98854.78;;;28.81;23.73
40954;BME280;26686;50.130;8.710;2024-03-02T12:51:26;98849.69;;;29.84;23.02
40954;BME280;26686;50.130;8.710;2024-03-02T12:56:27;98840.22;;;31.37;21.70
40954;BME280;26686;50.130;8.710;2024-03-02T13:01:29;98839.97;;;32.15;19.59
40954;BME280;26686;50.130;8.710;2024-03-02T13:06:33;98835.38;;;32.85;18.79
40954;BME280;26686;50.130;8.710;2024-03-02T13:11:35;98822.91;;;33.79;18.19
40954;BME280;26686;50.130;8.710;2024-03-02T13:16:40;98821.50;;;34.59;17.32
40954;BME280;26686;50.130;8.710;2024-03-02T13:21:48;98809.16;;;35.05;16.34
40954;BME280;26686;50.130;8.710;2024-03-02T13:26:53;98814.97;;;35.52;15.98
40954;BME280;26686;50.130;8.710;2024-03-02T13:31:59;98800.72;;;36.41;14.95
40954;BME280;26686;50.130;8.710;2024-03-02T13:37:00;98798.59;;;36.47;15.01
40954;BME280;26686;50.130;8.710;2024-03-02T13:42:03;98801.47;;;35.86;15.58
40954;BME280;26686;50.130;8.710;2024-03-02T13:47:05;98789.13;;;36.87;15.61
40954;BME280;26686;50.130;8.710;2024-03-02T13:52:06;98788.75;;;36.58;15.18
40954;BME280;26686;50.130;8.710;2024-03-02T13:57:21;98773.34;;;31.04;20.38
40954;BME280;26686;50.130;8.710;2024-03-02T14:02:27;98774.03;;;35.05;16.70
40954;BME280;26686;50.130;8.710;2024-03-02T14:07:30;98753.09;;;35.31;16.09
40954;BME280;26686;50.130;8.710;2024-03-02T14:12:32;98750.34;;;31.76;18.92
40954;BME280;26686;50.130;8.710;2024-03-02T14:17:34;98754.03;;;32.18;19.06
40954;BME280;26686;50.130;8.710;2024-03-02T14:22:35;98753.75;;;31.67;19.04
40954;BME280;26686;50.130;8.710;2024-03-02T14:27:40;98742.00;;;30.61;20.44
40954;BME280;26686;50.130;8.710;2024-03-02T14:33:01;98738.97;;;28.80;21.60
40954;BME280;26686;50.130;8.710;2024-03-02T14:38:03;98730.31;;;27.19;23.17
40954;BME280;26686;50.130;8.710;2024-03-02T14:43:05;98730.88;;;25.39;25.49
40954;BME280;26686;50.130;8.710;2024-03-02T14:48:07;98721.75;;;23.50;28.00
40954;BME280;26686;50.130;8.710;2024-03-02T14:53:09;98726.09;;;22.65;29.65
40954;BME280;26686;50.130;8.710;2024-03-02T14:58:11;98725.69;;;21.97;30.27
40954;BME280;26686;50.130;8.710;2024-03-02T15:03:13;98727.44;;;21.79;30.82
40954;BME280;26686;50.130;8.710;2024-03-02T15:08:15;98719.25;;;21.56;31.53
40954;BME280;26686;50.130;8.710;2024-03-02T15:13:17;98703.47;;;21.10;32.73
40954;BME280;26686;50.130;8.710;2024-03-02T15:18:18;98699.47;;;20.64;33.44
40954;BME280;26686;50.130;8.710;2024-03-02T15:23:20;98709.69;;;20.25;33.63
40954;BME280;26686;50.130;8.710;2024-03-02T15:28:22;98705.31;;;20.05;33.94
40954;BME280;26686;50.130;8.710;2024-03-02T15:33:25;98699.31;;;19.85;34.29
40954;BME280;26686;50.130;8.710;2024-03-02T15:38:33;98690.47;;;19.46;34.26
40954;BME280;26686;50.130;8.710;2024-03-02T15:43:43;98687.31;;;19.23;35.13
40954;BME280;26686;50.130;8.710;2024-03-02T15:48:44;98686.22;;;18.99;34.99
40954;BME280;26686;50.130;8.710;2024-03-02T15:53:52;98688.38;;;18.77;35.42
40954;BME280;26686;50.130;8.710;2024-03-02T15:58:53;98682.44;;;18.55;35.70
40954;BME280;26686;50.130;8.710;2024-03-02T16:03:57;98671.75;;;18.35;36.10
40954;BME280;26686;50.130;8.710;2024-03-02T16:08:58;98679.88;;;18.22;36.81
40954;BME280;26686;50.130;8.710;2024-03-02T16:14:01;98680.31;;;18.05;36.94
40954;BME280;26686;50.130;8.710;2024-03-02T16:19:03;98686.53;;;17.85;37.40
40954;BME280;26686;50.130;8.710;2024-03-02T16:24:16;98676.81;;;17.71;37.55
40954;BME280;26686;50.130;8.710;2024-03-02T16:29:18;98671.88;;;17.48;38.49
40954;BME280;26686;50.130;8.710;2024-03-02T16:34:20;98666.28;;;17.36;38.48
40954;BME280;26686;50.130;8.710;2024-03-02T16:39:22;98671.66;;;17.29;39.21
40954;BME280;26686;50.130;8.710;2024-03-02T16:44:24;98667.88;;;17.04;39.93
40954;BME280;26686;50.130;8.710;2024-03-02T16:49:26;98677.81;;;17.03;40.55
40954;BME280;26686;50.130;8.710;2024-03-02T16:54:27;98686.06;;;16.88;40.88
40954;BME280;26686;50.130;8.710;2024-03-02T16:59:29;98681.66;;;16.81;41.34
40954;BME280;26686;50.130;8.710;2024-03-02T17:04:30;98681.19;;;16.64;41.98
40954;BME280;26686;50.130;8.710;2024-03-02T17:09:32;98691.69;;;16.52;42.41
40954;BME280;26686;50.130;8.710;2024-03-02T17:14:33;98692.03;;;16.42;43.11
40954;BME280;26686;50.130;8.710;2024-03-02T17:19:36;98699.19;;;16.21;43.50
40954;BME280;26686;50.130;8.710;2024-03-02T17:24:45;98698.94;;;16.16;44.09
40954;BME280;26686;50.130;8.710;2024-03-02T17:29:47;98697.66;;;16.05;44.37
40954;BME280;26686;50.130;8.710;2024-03-02T17:34:49;98699.41;;;15.92;44.83
40954;BME280;26686;50.130;8.710;2024-03-02T17:39:51;98695.59;;;15.79;45.42
40954;BME280;26686;50.130;8.710;2024-03-02T17:44:53;98700.06;;;15.72;45.61
40954;BME280;26686;50.130;8.710;2024-03-02T17:49:54;98701.38;;;15.54;46.31
40954;BME280;26686;50.130;8.710;2024-03-02T17:54:56;98691.16;;;15.43;46.79
40954;BME280;26686;50.130;8.710;2024-03-02T17:59:57;98690.03;;;15.31;47.12
40954;BME280;26686;50.130;8.710;2024-03-02T18:04:59;98701.91;;;15.22;47.76
40954;BME280;26686;50.130;8.710;2024-03-02T18:10:00;98703.88;;;15.13;48.26
40954;BME280;26686;50.130;8.710;2024-03-02T18:15:07;98691.00;;;15.01;48.75
40954;BME280;26686;50.130;8.710;2024-03-02T18:20:11;98691.56;;;14.97;49.07
40954;BME280;26686;50.130;8.710;2024-03-02T18:25:12;98689.38;;;14.85;49.50
40954;BME280;26686;50.130;8.710;2024-03-02T18:30:16;98677.31;;;14.75;49.77
40954;BME280;26686;50.130;8.710;2024-03-02T18:35:18;98682.84;;;14.73;50.29
40954;BME280;26686;50.130;8.710;2024-03-02T18:40:19;98679.63;;;14.63;50.85
40954;BME280;26686;50.130;8.710;2024-03-02T18:45:21;98676.00;;;14.56;51.36
40954;BME280;26686;50.130;8.710;2024-03-02T18:50:24;98672.16;;;14.43;51.86
40954;BME280;26686;50.130;8.710;2024-03-02T18:55:26;98655.69;;;14.25;52.26
40954;BME280;26686;50.130;8.710;2024-03-02T19:00:28;98676.97;;;14.33;52.49
40954;BME280;26686;50.130;8.710;2024-03-02T19:05:29;98672.38;;;14.27;53.00
40954;BME280;26686;50.130;8.710;2024-03-02T19:10:31;98672.75;;;14.24;53.56
40954;BME280;26686;50.130;8.710;2024-03-02T19:15:32;98685.50;;;14.22;53.63
40954;BME280;26686;50.130;8.710;2024-03-02T19:20:34;98660.19;;;14.09;53.82
40954;BME280;26686;50.130;8.710;2024-03-02T19:25:36;98654.38;;;14.06;54.94
40954;BME280;26686;50.130;8.710;2024-03-02T19:30:38;98654.56;;;14.04;54.90
40954;BME280;26686;50.130;8.710;2024-03-02T19:35:41;98645.19;;;13.93;55.06
40954;BME280;26686;50.130;8.710;2024-03-02T19:40:43;98649.16;;;13.83;55.46
40954;BME280;26686;50.130;8.710;2024-03-02T19:45:45;98648.56;;;13.72;56.09
40954;BME280;26686;50.130;8.710;2024-03-02T19:50:46;98657.59;;;13.71;55.98
40954;BME280;26686;50.130;8.710;2024-03-02T19:55:49;98666.25;;;13.73;55.42
40954;BME280;26686;50.130;8.710;2024-03-02T20:00:50;98650.75;;;13.54;56.44
40954;BME280;26686;50.130;8.710;2024-03-02T20:05:52;98656.66;;;13.64;55.87
40954;BME280;26686;50.130;8.710;2024-03-02T20:10:53;98665.72;;;13.63;56.44
40954;BME280;26686;50.130;8.710;2024-03-02T20:15:55;98677.13;;;13.57;56.36
40954;BME280;26686;50.130;8.710;2024-03-02T20:20:56;98687.00;;;13.56;56.27
40954;BME280;26686;50.130;8.710;2024-03-02T20:25:58;98674.91;;;13.46;56.05
40954;BME280;26686;50.130;8.710;2024-03-02T20:30:59;98693.88;;;13.51;56.56
40954;BME280;26686;50.130;8.710;2024-03-02T20:36:02;98687.72;;;13.50;56.34
40954;BME280;26686;50.130;8.710;2024-03-02T20:41:04;98678.88;;;13.50;56.67
40954;BME280;26686;50.130;8.710;2024-03-02T20:46:05;98687.25;;;13.47;56.71
40954;BME280;26686;50.130;8.710;2024-03-02T20:51:08;98686.13;;;13.41;56.82
40954;BME280;26686;50.130;8.710;2024-03-02T20:56:10;98687.34;;;13.30;56.82
40954;BME280;26686;50.130;8.710;2024-03-02T21:01:11;98702.88;;;13.35;57.03
40954;BME280;26686;50.130;8.710;2024-03-02T21:06:13;98690.66;;;13.32;57.23
40954;BME280;26686;50.130;8.710;2024-03-02T21:11:16;98698.75;;;13.24;57.76
40954;BME280;26686;50.130;8.710;2024-03-02T21:16:19;98673.44;;;13.12;57.88
40954;BME280;26686;50.130;8.710;2024-03-02T21:21:21;98671.38;;;13.22;58.09
40954;BME280;26686;50.130;8.710;2024-03-02T21:26:24;98665.44;;;13.12;58.12
40954;BME280;26686;50.130;8.710;2024-03-02T21:31:26;98666.50;;;13.02;58.45
40954;BME280;26686;50.130;8.710;2024-03-02T21:36:27;98667.06;;;12.98;58.91
40954;BME280;26686;50.130;8.710;2024-03-02T21:41:29;98658.22;;;12.97;58.77
40954;BME280;26686;50.130;8.710;2024-03-02T21:46:31;98655.06;;;12.94;58.97
40954;BME280;26686;50.130;8.710;2024-03-02T21:51:32;98650.06;;;12.90;59.01
40954;BME280;26686;50.130;8.710;2024-03-02T21:56:34;98644.97;;;12.81;59.12
40954;BME280;26686;50.130;8.710;2024-03-02T22:01:35;98647.34;;;12.76;59.54
40954;BME280;26686;50.130;8.710;2024-03-02T22:06:37;98652.03;;;12.73;59.48
40954;BME280;26686;50.130;8.710;2024-03-02T22:11:39;98643.69;;;12.68;59.72
40954;BME280;26686;50.130;8.710;2024-03-02T22:16:42;98638.44;;;12.60;60.30
40954;BME280;26686;50.130;8.710;2024-03-02T22:21:44;98655.16;;;12.54;60.78
40954;BME280;26686;50.130;8.710;2024-03-02T22:26:45;98634.69;;;12.38;61.08
40954;BME280;26686;50.130;8.710;2024-03-02T22:31:47;98651.22;;;12.42;61.22
40954;BME280;26686;50.130;8.710;2024-03-02T22:36:49;98657.53;;;12.41;61.48
40954;BME280;26686;50.130;8.710;2024-03-02T22:41:51;98662.25;;;12.38;61.42
40954;BME280;26686;50.130;8.710;2024-03-02T22:46:52;98665.91;;;12.37;61.23
40954;BME280;26686;50.130;8.710;2024-03-02T22:51:56;98675.25;;;12.33;61.64
40954;BME280;26686;50.130;8.710;2024-03-02T22:56:58;98684.59;;;12.29;61.88
40954;BME280;26686;50.130;8.710;2024-03-02T23:02:00;98673.63;;;12.24;62.08
40954;BME280;26686;50.130;8.710;2024-03-02T23:07:02;98675.81;;;12.20;62.09
40954;BME280;26686;50.130;8.710;2024-03-02T23:12:04;98660.81;;;12.11;62.55
40954;BME280;26686;50.130;8.710;2024-03-02T23:17:06;98667.00;;;12.12;62.80
40954;BME280;26686;50.130;8.710;2024-03-02T23:22:07;98660.34;;;12.08;63.06
40954;BME280;26686;50.130;8.710;2024-03-02T23:27:09;98655.00;;;12.08;63.22
40954;BME280;26686;50.130;8.710;2024-03-02T23:32:11;98660.69;;;12.05;63.16
40954;BME280;26686;50.130;8.710;2024-03-02T23:37:12;98661.03;;;12.01;63.47
40954;BME280;26686;50.130;8.710;2024-03-02T23:42:14;98664.69;;;12.00;63.80
40954;BME280;26686;50.130;8.710;2024-03-02T23:47:15;98659.72;;;11.97;64.09
40954;BME280;26686;50.130;8.710;2024-03-02T23:52:17;98657.41;;;11.86;64.31
40954;BME280;26686;50.130;8.710;2024-03-02T23:57:18;98658.72;;;11.82;64.45
